Cruise inventory

Unknown unknown Kingfisher 20101014

Cruise plan

Cruise Info. 
Ship name (ship code)Unknown unknown (ZZ99)
Cruise identifierKingfisher 20101014
Cruise period2010-10-14 — 2010-11-12
StatusCompleted
Port of departureSoyo Oil Terminal, Angola
Port of returnSoyo Oil Terminal, Angola
PurposeResearch
ObjectivesLong-term measurement programme Angola LNG Navigation Channel.
Ship used was Kingfisher, a 28-foot survey vessel owned by Angola LNG.
Chief scientistPaul Trapier Puckette (Evans-Hamilton, Inc)
Ocean/sea areas 
GeneralSouth East Atlantic Ocean (limit 20W)
SpecificCongo Channel
Data held at BODC 
Series/Profiles 
78  CTD/STD cast
Electrical conductivity of the water column
Vertical spatial coordinates
Salinity of the water column
Concentration of suspended particulate material in the water column
Temperature of the water column
Reference numbers
Date and time
Electrical conductivity of the water column
Vertical spatial coordinates
Salinity of the water column
Concentration of suspended particulate material in the water column
Temperature of the water column
Reference numbers
Date and time

BODC idDate/TimeLocationDoc.
17411152010-10-27 13:40:26  — 2010-10-27 13:43:32 6° 5' 38" S  12° 20' 0" E  View metadata report for BODC series reference number 1741115
17411272010-10-27 09:44:40  — 2010-10-27 09:48:02 6° 5' 38" S  12° 20' 0" E  View metadata report for BODC series reference number 1741127
17411392010-10-27 12:15:27  — 2010-10-27 12:18:34 6° 5' 38" S  12° 20' 0" E  View metadata report for BODC series reference number 1741139
17385252010-11-07 07:52:40  — 2010-11-07 07:58:54 6° 5' 35" S  12° 19' 59" E  View metadata report for BODC series reference number 1738525
17385372010-11-07 08:44:29  — 2010-11-07 08:53:58 6° 5' 35" S  12° 19' 59" E  View metadata report for BODC series reference number 1738537
17385492010-11-07 09:22:02  — 2010-11-07 09:28:13 6° 5' 35" S  12° 19' 59" E  View metadata report for BODC series reference number 1738549
17385502010-11-07 10:17:10  — 2010-11-07 10:22:45 6° 5' 35" S  12° 19' 59" E  View metadata report for BODC series reference number 1738550
17385622010-11-07 10:45:03  — 2010-11-07 10:51:44 6° 5' 35" S  12° 19' 59" E  View metadata report for BODC series reference number 1738562
17385742010-11-07 11:36:12  — 2010-11-07 11:40:41 6° 5' 35" S  12° 19' 59" E  View metadata report for BODC series reference number 1738574
17385862010-11-07 12:05:21  — 2010-11-07 12:11:18 6° 5' 35" S  12° 19' 59" E  View metadata report for BODC series reference number 1738586
17385982010-11-07 12:58:48  — 2010-11-07 13:02:57 6° 5' 35" S  12° 19' 59" E  View metadata report for BODC series reference number 1738598
17386052010-11-07 13:25:11  — 2010-11-07 13:29:40 6° 5' 35" S  12° 19' 59" E  View metadata report for BODC series reference number 1738605
17386172010-11-07 14:16:36  — 2010-11-07 14:21:06 6° 5' 35" S  12° 19' 59" E  View metadata report for BODC series reference number 1738617
17386292010-11-07 14:49:22  — 2010-11-07 14:53:52 6° 5' 35" S  12° 19' 59" E  View metadata report for BODC series reference number 1738629
17386302010-11-07 15:41:25  — 2010-11-07 15:45:53 6° 5' 35" S  12° 19' 59" E  View metadata report for BODC series reference number 1738630
17395892010-11-07 07:15:30  — 2010-11-07 07:24:31 6° 5' 35" S  12° 19' 59" E  View metadata report for BODC series reference number 1739589
17404372010-10-18 14:26:21  — 2010-10-18 14:27:59 6° 5' 38" S  12° 20' 0" E  View metadata report for BODC series reference number 1740437
17404492010-10-18 15:02:27  — 2010-10-18 15:06:37 6° 4' 14" S  12° 20' 24" E  View metadata report for BODC series reference number 1740449
17404502010-10-19 08:08:25  — 2010-10-19 08:12:10 6° 5' 38" S  12° 20' 0" E  View metadata report for BODC series reference number 1740450
17404622010-10-19 08:49:26  — 2010-10-19 08:52:57 6° 4' 14" S  12° 20' 24" E  View metadata report for BODC series reference number 1740462
17404742010-10-19 09:55:24  — 2010-10-19 09:58:52 6° 5' 38" S  12° 20' 0" E  View metadata report for BODC series reference number 1740474
17404862010-10-19 10:25:20  — 2010-10-19 10:28:12 6° 4' 14" S  12° 20' 24" E  View metadata report for BODC series reference number 1740486
17404982010-10-19 11:31:30  — 2010-10-19 11:33:45 6° 5' 38" S  12° 20' 0" E  View metadata report for BODC series reference number 1740498
17405052010-10-19 12:00:51  — 2010-10-19 12:03:11 6° 4' 14" S  12° 20' 24" E  View metadata report for BODC series reference number 1740505
17405172010-10-19 12:57:28  — 2010-10-19 12:59:54 6° 5' 38" S  12° 20' 0" E  View metadata report for BODC series reference number 1740517
17405292010-10-19 13:28:30  — 2010-10-19 13:30:53 6° 4' 14" S  12° 20' 24" E  View metadata report for BODC series reference number 1740529
17405302010-10-19 14:23:15  — 2010-10-19 14:26:19 6° 5' 38" S  12° 20' 0" E  View metadata report for BODC series reference number 1740530
17405422010-10-19 14:52:10  — 2010-10-19 14:54:51 6° 4' 14" S  12° 20' 24" E  View metadata report for BODC series reference number 1740542
17405542010-10-19 15:45:54  — 2010-10-19 15:48:31 6° 5' 38" S  12° 20' 0" E  View metadata report for BODC series reference number 1740554
17405662010-10-19 16:13:56  — 2010-10-19 16:17:02 6° 5' 38" S  12° 20' 0" E  View metadata report for BODC series reference number 1740566
17405782010-10-20 06:56:13  — 2010-10-20 06:57:58 6° 5' 38" S  12° 20' 0" E  View metadata report for BODC series reference number 1740578
17405912010-10-20 07:25:20  — 2010-10-20 07:27:44 6° 3' 42" S  12° 20' 30" E  View metadata report for BODC series reference number 1740591
17406092010-10-20 08:24:46  — 2010-10-20 08:26:38 6° 5' 2" S  12° 20' 10" E  View metadata report for BODC series reference number 1740609
17406102010-10-20 08:58:20  — 2010-10-20 09:01:11 6° 5' 38" S  12° 20' 0" E  View metadata report for BODC series reference number 1740610
17406222010-10-20 10:30:42  — 2010-10-20 10:32:53 6° 5' 2" S  12° 20' 10" E  View metadata report for BODC series reference number 1740622
17406342010-10-20 10:50:29  — 2010-10-20 10:53:20 6° 3' 42" S  12° 20' 30" E  View metadata report for BODC series reference number 1740634
17406462010-10-20 11:30:50  — 2010-10-20 11:33:04 6° 5' 2" S  12° 20' 10" E  View metadata report for BODC series reference number 1740646
17406582010-10-20 11:53:32  — 2010-10-20 11:56:29 6° 3' 42" S  12° 20' 30" E  View metadata report for BODC series reference number 1740658
17406712010-10-20 12:52:19  — 2010-10-20 12:54:34 6° 5' 2" S  12° 20' 10" E  View metadata report for BODC series reference number 1740671
17406832010-10-20 13:15:23  — 2010-10-20 13:20:23 6° 3' 42" S  12° 20' 30" E  View metadata report for BODC series reference number 1740683
17406952010-10-20 14:06:40  — 2010-10-20 14:11 6° 5' 2" S  12° 20' 10" E  View metadata report for BODC series reference number 1740695
17407022010-10-20 14:33:51  — 2010-10-20 14:38:21 6° 3' 42" S  12° 20' 30" E  View metadata report for BODC series reference number 1740702
17407142010-10-20 15:28:15  — 2010-10-20 15:31 6° 5' 2" S  12° 20' 10" E  View metadata report for BODC series reference number 1740714
17407262010-10-20 15:51:09  — 2010-10-20 15:55:25 6° 5' 38" S  12° 20' 0" E  View metadata report for BODC series reference number 1740726
17407382010-10-21 08:04:02  — 2010-10-21 08:06:17 6° 5' 38" S  12° 20' 0" E  View metadata report for BODC series reference number 1740738
17407512010-10-21 08:39:54  — 2010-10-21 08:42:53 6° 4' 14" S  12° 20' 24" E  View metadata report for BODC series reference number 1740751
17407632010-10-21 10:12:27  — 2010-10-21 10:14:07 6° 5' 38" S  12° 20' 0" E  View metadata report for BODC series reference number 1740763
17407752010-10-21 10:40:33  — 2010-10-21 10:43:40 6° 5' 38" S  12° 20' 0" E  View metadata report for BODC series reference number 1740775
17407872010-10-21 11:38:32  — 2010-10-21 11:40:38 6° 5' 38" S  12° 20' 0" E  View metadata report for BODC series reference number 1740787
17407992010-10-21 12:07:15  — 2010-10-21 12:10:57 6° 5' 38" S  12° 20' 0" E  View metadata report for BODC series reference number 1740799
17408062010-10-21 13:22:47  — 2010-10-21 13:25:08 6° 5' 38" S  12° 20' 0" E  View metadata report for BODC series reference number 1740806
17408182010-10-21 14:14:11  — 2010-10-21 14:17:27 6° 4' 14" S  12° 20' 24" E  View metadata report for BODC series reference number 1740818
17408312010-10-21 15:08  — 2010-10-21 15:09:51 6° 5' 38" S  12° 20' 0" E  View metadata report for BODC series reference number 1740831
17408432010-10-21 15:34:17  — 2010-10-21 15:38:21 6° 4' 14" S  12° 20' 24" E  View metadata report for BODC series reference number 1740843
17408552010-10-22 08:24:28  — 2010-10-22 08:27:43 6° 5' 2" S  12° 20' 10" E  View metadata report for BODC series reference number 1740855
17408672010-10-22 08:53:10  — 2010-10-22 08:58:30 6° 5' 38" S  12° 20' 0" E  View metadata report for BODC series reference number 1740867
17408792010-10-22 09:39:21  — 2010-10-22 09:42:27 6° 5' 2" S  12° 20' 10" E  View metadata report for BODC series reference number 1740879
17408802010-10-22 10:02:51  — 2010-10-22 10:07:04 6° 3' 42" S  12° 20' 30" E  View metadata report for BODC series reference number 1740880
17408922010-10-22 11:15:14  — 2010-10-22 11:17:12 6° 5' 2" S  12° 20' 10" E  View metadata report for BODC series reference number 1740892
17409112010-10-22 11:55:29  — 2010-10-22 12:00:35 6° 5' 38" S  12° 20' 0" E  View metadata report for BODC series reference number 1740911
17409232010-10-22 12:44:33  — 2010-10-22 12:49:56 6° 5' 2" S  12° 20' 10" E  View metadata report for BODC series reference number 1740923
17409352010-10-22 13:22:43  — 2010-10-22 13:29:13 6° 5' 38" S  12° 20' 0" E  View metadata report for BODC series reference number 1740935
17409472010-10-22 14:17:17  — 2010-10-22 14:22:42 6° 5' 2" S  12° 20' 10" E  View metadata report for BODC series reference number 1740947
17409592010-10-22 14:51:42  — 2010-10-22 14:57:38 6° 3' 42" S  12° 20' 30" E  View metadata report for BODC series reference number 1740959
17409602010-10-26 08:34:31  — 2010-10-26 08:36:36 6° 5' 38" S  12° 20' 0" E  View metadata report for BODC series reference number 1740960
17409722010-10-26 07:51:28  — 2010-10-26 07:52:54 6° 5' 38" S  12° 20' 0" E  View metadata report for BODC series reference number 1740972
17409842010-10-26 15:01:18  — 2010-10-26 15:03:45 6° 5' 38" S  12° 20' 0" E  View metadata report for BODC series reference number 1740984
17409962010-10-26 09:28:49  — 2010-10-26 09:31:42 6° 5' 38" S  12° 20' 0" E  View metadata report for BODC series reference number 1740996
17410112010-10-26 09:02:31  — 2010-10-26 09:04:33 6° 5' 38" S  12° 20' 0" E  View metadata report for BODC series reference number 1741011
17410232010-10-26 08:34:31  — 2010-10-26 08:36:36 6° 5' 38" S  12° 20' 0" E  View metadata report for BODC series reference number 1741023
17410352010-10-26 10:36:07  — 2010-10-26 10:38:38 6° 5' 38" S  12° 20' 0" E  View metadata report for BODC series reference number 1741035
17410472010-10-26 13:36:11  — 2010-10-26 13:38:55 6° 5' 38" S  12° 20' 0" E  View metadata report for BODC series reference number 1741047
17410592010-10-26 12:35:34  — 2010-10-26 12:38:15 6° 5' 38" S  12° 20' 0" E  View metadata report for BODC series reference number 1741059
17410602010-10-26 15:33:43  — 2010-10-26 15:36:59 6° 5' 38" S  12° 20' 0" E  View metadata report for BODC series reference number 1741060
17410722010-10-26 15:59:26  — 2010-10-26 16:02:12 6° 5' 38" S  12° 20' 0" E  View metadata report for BODC series reference number 1741072
17410842010-10-27 14:14:06  — 2010-10-27 14:15:54 6° 5' 38" S  12° 20' 0" E  View metadata report for BODC series reference number 1741084
17410962010-10-27 08:15:15  — 2010-10-27 08:18:20 6° 5' 38" S  12° 20' 0" E  View metadata report for BODC series reference number 1741096
17411032010-10-27 13:26:50  — 2010-10-27 13:30:15 6° 5' 38" S  12° 20' 0" E  View metadata report for BODC series reference number 1741103